sensor_id;sensor_type;location;lat;lon;timestamp;P1;durP1;ratioP1;P2;durP2;ratioP2
46863;SDS011;32598;50.204;6.408;2022-10-16T00:01:40;7.50;;;4.03;;
46863;SDS011;32598;50.204;6.408;2022-10-16T00:04:05;8.00;;;4.10;;
46863;SDS011;32598;50.204;6.408;2022-10-16T00:06:31;10.18;;;3.90;;
46863;SDS011;32598;50.204;6.408;2022-10-16T00:08:56;7.85;;;3.88;;
46863;SDS011;32598;50.204;6.408;2022-10-16T00:11:55;8.60;;;4.57;;
46863;SDS011;32598;50.204;6.408;2022-10-16T00:14:13;9.15;;;4.25;;
46863;SDS011;32598;50.204;6.408;2022-10-16T00:16:39;7.38;;;4.10;;
46863;SDS011;32598;50.204;6.408;2022-10-16T00:19:05;8.57;;;4.20;;
46863;SDS011;32598;50.204;6.408;2022-10-16T00:21:30;7.35;;;4.00;;
46863;SDS011;32598;50.204;6.408;2022-10-16T00:24:00;8.23;;;4.00;;
46863;SDS011;32598;50.204;6.408;2022-10-16T00:26:26;8.55;;;3.42;;
46863;SDS011;32598;50.204;6.408;2022-10-16T00:28:51;9.27;;;3.80;;
46863;SDS011;32598;50.204;6.408;2022-10-16T00:31:18;7.07;;;3.88;;
46863;SDS011;32598;50.204;6.408;2022-10-16T00:33:43;9.20;;;3.80;;
46863;SDS011;32598;50.204;6.408;2022-10-16T00:36:10;7.50;;;3.70;;
46863;SDS011;32598;50.204;6.408;2022-10-16T00:38:35;7.22;;;3.35;;
46863;SDS011;32598;50.204;6.408;2022-10-16T00:41:02;6.90;;;3.42;;
46863;SDS011;32598;50.204;6.408;2022-10-16T00:48:36;7.20;;;3.20;;
46863;SDS011;32598;50.204;6.408;2022-10-16T00:51:01;7.10;;;3.42;;
46863;SDS011;32598;50.204;6.408;2022-10-16T00:53:27;7.07;;;3.50;;
46863;SDS011;32598;50.204;6.408;2022-10-16T00:55:53;7.03;;;3.30;;
46863;SDS011;32598;50.204;6.408;2022-10-16T00:58:18;6.68;;;3.20;;
46863;SDS011;32598;50.204;6.408;2022-10-16T01:00:44;8.43;;;3.05;;
46863;SDS011;32598;50.204;6.408;2022-10-16T01:03:22;9.37;;;3.40;;
46863;SDS011;32598;50.204;6.408;2022-10-16T01:05:49;7.80;;;3.33;;
46863;SDS011;32598;50.204;6.408;2022-10-16T01:08:19;8.90;;;2.78;;
46863;SDS011;32598;50.204;6.408;2022-10-16T01:13:18;7.28;;;2.90;;
46863;SDS011;32598;50.204;6.408;2022-10-16T01:16:05;8.65;;;3.10;;
46863;SDS011;32598;50.204;6.408;2022-10-16T01:21:04;12.13;;;4.00;;
46863;SDS011;32598;50.204;6.408;2022-10-16T01:28:39;11.48;;;4.43;;
46863;SDS011;32598;50.204;6.408;2022-10-16T01:31:06;14.57;;;4.70;;
46863;SDS011;32598;50.204;6.408;2022-10-16T01:33:42;11.15;;;5.57;;
46863;SDS011;32598;50.204;6.408;2022-10-16T01:36:13;12.32;;;5.47;;
46863;SDS011;32598;50.204;6.408;2022-10-16T01:38:39;8.52;;;5.03;;
46863;SDS011;32598;50.204;6.408;2022-10-16T01:41:08;10.75;;;5.30;;
46863;SDS011;32598;50.204;6.408;2022-10-16T01:43:36;11.25;;;5.07;;
46863;SDS011;32598;50.204;6.408;2022-10-16T01:46:01;8.10;;;5.18;;
46863;SDS011;32598;50.204;6.408;2022-10-16T01:48:27;7.78;;;4.90;;
46863;SDS011;32598;50.204;6.408;2022-10-16T01:50:57;9.98;;;5.28;;
46863;SDS011;32598;50.204;6.408;2022-10-16T01:53:22;12.65;;;4.40;;
46863;SDS011;32598;50.204;6.408;2022-10-16T01:55:49;11.05;;;5.90;;
46863;SDS011;32598;50.204;6.408;2022-10-16T01:58:15;10.02;;;4.93;;
46863;SDS011;32598;50.204;6.408;2022-10-16T02:00:41;12.98;;;5.78;;
46863;SDS011;32598;50.204;6.408;2022-10-16T02:03:08;8.68;;;6.03;;
46863;SDS011;32598;50.204;6.408;2022-10-16T02:05:40;9.65;;;5.47;;
46863;SDS011;32598;50.204;6.408;2022-10-16T02:08:06;10.80;;;6.88;;
46863;SDS011;32598;50.204;6.408;2022-10-16T02:10:32;21.13;;;7.50;;
46863;SDS011;32598;50.204;6.408;2022-10-16T02:12:59;14.02;;;7.30;;
46863;SDS011;32598;50.204;6.408;2022-10-16T02:15:25;12.25;;;7.63;;
46863;SDS011;32598;50.204;6.408;2022-10-16T02:17:51;14.68;;;8.35;;
46863;SDS011;32598;50.204;6.408;2022-10-16T02:20:16;10.30;;;7.80;;
46863;SDS011;32598;50.204;6.408;2022-10-16T02:22:43;18.70;;;9.75;;
46863;SDS011;32598;50.204;6.408;2022-10-16T02:25:44;12.63;;;9.70;;
46863;SDS011;32598;50.204;6.408;2022-10-16T02:28:04;15.00;;;9.88;;
46863;SDS011;32598;50.204;6.408;2022-10-16T02:30:42;14.13;;;9.82;;
46863;SDS011;32598;50.204;6.408;2022-10-16T02:33:09;14.30;;;9.50;;
46863;SDS011;32598;50.204;6.408;2022-10-16T02:35:34;20.02;;;10.52;;
46863;SDS011;32598;50.204;6.408;2022-10-16T02:38:00;13.32;;;9.68;;
46863;SDS011;32598;50.204;6.408;2022-10-16T02:40:25;14.18;;;10.82;;
46863;SDS011;32598;50.204;6.408;2022-10-16T02:42:52;13.77;;;10.57;;
46863;SDS011;32598;50.204;6.408;2022-10-16T02:45:17;14.35;;;10.43;;
46863;SDS011;32598;50.204;6.408;2022-10-16T02:47:43;16.08;;;11.35;;
46863;SDS011;32598;50.204;6.408;2022-10-16T02:50:08;17.58;;;10.48;;
46863;SDS011;32598;50.204;6.408;2022-10-16T02:52:33;19.35;;;11.23;;
46863;SDS011;32598;50.204;6.408;2022-10-16T02:54:58;21.10;;;11.52;;
46863;SDS011;32598;50.204;6.408;2022-10-16T02:57:24;15.80;;;10.15;;
46863;SDS011;32598;50.204;6.408;2022-10-16T02:59:49;16.97;;;10.67;;
46863;SDS011;32598;50.204;6.408;2022-10-16T03:02:14;18.92;;;10.32;;
46863;SDS011;32598;50.204;6.408;2022-10-16T03:04:39;19.47;;;10.23;;
46863;SDS011;32598;50.204;6.408;2022-10-16T03:07:04;14.30;;;10.18;;
46863;SDS011;32598;50.204;6.408;2022-10-16T03:09:30;16.67;;;10.00;;
46863;SDS011;32598;50.204;6.408;2022-10-16T03:11:55;15.25;;;10.13;;
46863;SDS011;32598;50.204;6.408;2022-10-16T03:14:20;20.55;;;9.90;;
46863;SDS011;32598;50.204;6.408;2022-10-16T03:16:45;14.25;;;9.52;;
46863;SDS011;32598;50.204;6.408;2022-10-16T03:19:11;14.45;;;9.15;;
46863;SDS011;32598;50.204;6.408;2022-10-16T03:21:36;12.23;;;9.33;;
46863;SDS011;32598;50.204;6.408;2022-10-16T03:24:01;17.67;;;8.45;;
46863;SDS011;32598;50.204;6.408;2022-10-16T03:26:26;13.95;;;9.23;;
46863;SDS011;32598;50.204;6.408;2022-10-16T03:28:51;13.37;;;8.63;;
46863;SDS011;32598;50.204;6.408;2022-10-16T03:31:17;16.27;;;9.45;;
46863;SDS011;32598;50.204;6.408;2022-10-16T03:33:42;13.00;;;8.83;;
46863;SDS011;32598;50.204;6.408;2022-10-16T03:36:07;14.97;;;8.53;;
46863;SDS011;32598;50.204;6.408;2022-10-16T03:38:32;13.50;;;8.27;;
46863;SDS011;32598;50.204;6.408;2022-10-16T03:40:58;13.90;;;7.97;;
46863;SDS011;32598;50.204;6.408;2022-10-16T03:43:23;11.98;;;7.53;;
46863;SDS011;32598;50.204;6.408;2022-10-16T03:45:49;10.27;;;7.17;;
46863;SDS011;32598;50.204;6.408;2022-10-16T03:48:15;11.35;;;7.25;;
46863;SDS011;32598;50.204;6.408;2022-10-16T03:50:40;11.13;;;7.63;;
46863;SDS011;32598;50.204;6.408;2022-10-16T03:53:05;12.40;;;7.25;;
46863;SDS011;32598;50.204;6.408;2022-10-16T03:55:30;10.37;;;7.00;;
46863;SDS011;32598;50.204;6.408;2022-10-16T03:57:56;10.32;;;7.18;;
46863;SDS011;32598;50.204;6.408;2022-10-16T04:00:21;11.63;;;7.60;;
46863;SDS011;32598;50.204;6.408;2022-10-16T04:02:46;10.03;;;6.83;;
46863;SDS011;32598;50.204;6.408;2022-10-16T04:05:11;9.57;;;6.63;;
46863;SDS011;32598;50.204;6.408;2022-10-16T04:07:36;12.15;;;7.05;;
46863;SDS011;32598;50.204;6.408;2022-10-16T04:10:02;10.50;;;6.55;;
46863;SDS011;32598;50.204;6.408;2022-10-16T04:12:28;11.90;;;6.95;;
46863;SDS011;32598;50.204;6.408;2022-10-16T04:14:53;11.03;;;6.50;;
46863;SDS011;32598;50.204;6.408;2022-10-16T04:17:18;11.73;;;6.97;;
46863;SDS011;32598;50.204;6.408;2022-10-16T04:19:43;9.55;;;6.80;;
46863;SDS011;32598;50.204;6.408;2022-10-16T04:22:08;10.77;;;6.17;;
46863;SDS011;32598;50.204;6.408;2022-10-16T04:24:34;8.80;;;6.50;;
46863;SDS011;32598;50.204;6.408;2022-10-16T04:26:59;10.13;;;6.70;;
46863;SDS011;32598;50.204;6.408;2022-10-16T04:29:24;9.07;;;6.00;;
46863;SDS011;32598;50.204;6.408;2022-10-16T04:31:49;9.93;;;6.33;;
46863;SDS011;32598;50.204;6.408;2022-10-16T04:34:14;8.90;;;5.85;;
46863;SDS011;32598;50.204;6.408;2022-10-16T04:36:40;10.18;;;5.95;;
46863;SDS011;32598;50.204;6.408;2022-10-16T04:39:05;13.03;;;6.20;;
46863;SDS011;32598;50.204;6.408;2022-10-16T04:41:30;11.38;;;5.22;;
46863;SDS011;32598;50.204;6.408;2022-10-16T04:43:55;10.13;;;5.70;;
46863;SDS011;32598;50.204;6.408;2022-10-16T04:46:20;8.83;;;5.20;;
46863;SDS011;32598;50.204;6.408;2022-10-16T04:48:46;9.52;;;5.50;;
46863;SDS011;32598;50.204;6.408;2022-10-16T04:51:11;7.78;;;5.20;;
46863;SDS011;32598;50.204;6.408;2022-10-16T04:53:37;12.75;;;5.85;;
46863;SDS011;32598;50.204;6.408;2022-10-16T04:56:02;10.35;;;5.25;;
46863;SDS011;32598;50.204;6.408;2022-10-16T04:58:27;8.90;;;5.22;;
46863;SDS011;32598;50.204;6.408;2022-10-16T05:00:52;9.20;;;5.87;;
46863;SDS011;32598;50.204;6.408;2022-10-16T05:03:17;8.82;;;5.65;;
46863;SDS011;32598;50.204;6.408;2022-10-16T05:05:43;12.57;;;5.37;;
46863;SDS011;32598;50.204;6.408;2022-10-16T05:08:09;10.25;;;5.22;;
46863;SDS011;32598;50.204;6.408;2022-10-16T05:10:34;9.68;;;5.53;;
46863;SDS011;32598;50.204;6.408;2022-10-16T05:13:00;12.23;;;5.23;;
46863;SDS011;32598;50.204;6.408;2022-10-16T05:15:25;9.83;;;4.43;;
46863;SDS011;32598;50.204;6.408;2022-10-16T05:17:52;7.57;;;4.50;;
46863;SDS011;32598;50.204;6.408;2022-10-16T05:20:17;8.20;;;4.95;;
46863;SDS011;32598;50.204;6.408;2022-10-16T05:22:42;9.73;;;5.40;;
46863;SDS011;32598;50.204;6.408;2022-10-16T05:25:07;8.13;;;4.87;;
46863;SDS011;32598;50.204;6.408;2022-10-16T05:27:32;9.00;;;4.97;;
46863;SDS011;32598;50.204;6.408;2022-10-16T05:29:58;10.53;;;5.20;;
46863;SDS011;32598;50.204;6.408;2022-10-16T05:32:23;7.72;;;4.75;;
46863;SDS011;32598;50.204;6.408;2022-10-16T05:34:48;8.20;;;5.13;;
46863;SDS011;32598;50.204;6.408;2022-10-16T05:37:13;12.48;;;5.40;;
46863;SDS011;32598;50.204;6.408;2022-10-16T05:39:38;8.87;;;5.20;;
46863;SDS011;32598;50.204;6.408;2022-10-16T05:42:04;7.90;;;5.40;;
46863;SDS011;32598;50.204;6.408;2022-10-16T05:44:29;8.38;;;4.95;;
46863;SDS011;32598;50.204;6.408;2022-10-16T05:46:55;9.35;;;4.88;;
46863;SDS011;32598;50.204;6.408;2022-10-16T05:49:20;12.47;;;5.33;;
46863;SDS011;32598;50.204;6.408;2022-10-16T05:51:45;10.90;;;4.63;;
46863;SDS011;32598;50.204;6.408;2022-10-16T05:54:10;7.75;;;4.78;;
46863;SDS011;32598;50.204;6.408;2022-10-16T05:56:35;11.40;;;5.78;;
46863;SDS011;32598;50.204;6.408;2022-10-16T05:59:01;10.40;;;4.83;;
46863;SDS011;32598;50.204;6.408;2022-10-16T06:01:27;6.97;;;5.05;;
46863;SDS011;32598;50.204;6.408;2022-10-16T06:03:52;9.93;;;4.53;;
46863;SDS011;32598;50.204;6.408;2022-10-16T06:06:19;11.25;;;4.82;;
46863;SDS011;32598;50.204;6.408;2022-10-16T06:08:45;13.18;;;4.60;;
46863;SDS011;32598;50.204;6.408;2022-10-16T06:11:12;7.50;;;4.35;;
46863;SDS011;32598;50.204;6.408;2022-10-16T06:13:37;8.10;;;4.07;;
46863;SDS011;32598;50.204;6.408;2022-10-16T06:16:04;6.55;;;3.90;;
46863;SDS011;32598;50.204;6.408;2022-10-16T06:18:29;7.55;;;3.40;;
46863;SDS011;32598;50.204;6.408;2022-10-16T06:20:55;8.88;;;3.35;;
46863;SDS011;32598;50.204;6.408;2022-10-16T06:23:20;7.13;;;3.53;;
46863;SDS011;32598;50.204;6.408;2022-10-16T06:25:46;6.13;;;3.50;;
46863;SDS011;32598;50.204;6.408;2022-10-16T06:28:11;10.53;;;3.30;;
46863;SDS011;32598;50.204;6.408;2022-10-16T06:30:36;5.90;;;3.38;;
46863;SDS011;32598;50.204;6.408;2022-10-16T06:33:01;9.40;;;3.03;;
46863;SDS011;32598;50.204;6.408;2022-10-16T06:35:26;7.68;;;3.22;;
46863;SDS011;32598;50.204;6.408;2022-10-16T06:37:52;5.95;;;3.20;;
46863;SDS011;32598;50.204;6.408;2022-10-16T06:40:18;5.93;;;3.05;;
46863;SDS011;32598;50.204;6.408;2022-10-16T06:42:43;10.32;;;3.45;;
46863;SDS011;32598;50.204;6.408;2022-10-16T06:45:08;5.28;;;2.80;;
46863;SDS011;32598;50.204;6.408;2022-10-16T06:47:34;8.43;;;3.10;;
46863;SDS011;32598;50.204;6.408;2022-10-16T06:49:59;5.30;;;2.47;;
46863;SDS011;32598;50.204;6.408;2022-10-16T06:52:24;6.07;;;2.80;;
46863;SDS011;32598;50.204;6.408;2022-10-16T06:54:49;7.00;;;2.70;;
46863;SDS011;32598;50.204;6.408;2022-10-16T06:57:15;6.82;;;2.80;;
46863;SDS011;32598;50.204;6.408;2022-10-16T06:59:40;8.68;;;3.03;;
46863;SDS011;32598;50.204;6.408;2022-10-16T07:02:05;6.57;;;2.73;;
46863;SDS011;32598;50.204;6.408;2022-10-16T07:04:31;6.85;;;2.90;;
46863;SDS011;32598;50.204;6.408;2022-10-16T07:06:57;7.23;;;3.07;;
46863;SDS011;32598;50.204;6.408;2022-10-16T07:09:22;7.00;;;2.95;;
46863;SDS011;32598;50.204;6.408;2022-10-16T07:11:47;5.57;;;3.05;;
46863;SDS011;32598;50.204;6.408;2022-10-16T07:14:15;9.60;;;2.65;;
46863;SDS011;32598;50.204;6.408;2022-10-16T07:16:40;6.78;;;2.60;;
46863;SDS011;32598;50.204;6.408;2022-10-16T07:19:05;4.93;;;2.72;;
46863;SDS011;32598;50.204;6.408;2022-10-16T07:21:31;5.37;;;2.40;;
46863;SDS011;32598;50.204;6.408;2022-10-16T07:24:00;5.75;;;2.80;;
46863;SDS011;32598;50.204;6.408;2022-10-16T07:26:26;5.13;;;2.85;;
46863;SDS011;32598;50.204;6.408;2022-10-16T07:28:52;5.38;;;2.83;;
46863;SDS011;32598;50.204;6.408;2022-10-16T07:31:17;5.63;;;2.65;;
46863;SDS011;32598;50.204;6.408;2022-10-16T07:33:43;8.07;;;2.45;;
46863;SDS011;32598;50.204;6.408;2022-10-16T07:36:10;6.00;;;2.20;;
46863;SDS011;32598;50.204;6.408;2022-10-16T07:38:35;5.47;;;2.22;;
46863;SDS011;32598;50.204;6.408;2022-10-16T07:41:02;5.53;;;2.10;;
46863;SDS011;32598;50.204;6.408;2022-10-16T07:43:27;6.53;;;2.00;;
46863;SDS011;32598;50.204;6.408;2022-10-16T07:45:53;9.25;;;2.25;;
46863;SDS011;32598;50.204;6.408;2022-10-16T07:48:19;3.67;;;1.98;;
46863;SDS011;32598;50.204;6.408;2022-10-16T07:50:45;4.32;;;1.83;;
46863;SDS011;32598;50.204;6.408;2022-10-16T07:53:10;4.05;;;1.73;;
46863;SDS011;32598;50.204;6.408;2022-10-16T07:55:36;5.03;;;1.58;;
46863;SDS011;32598;50.204;6.408;2022-10-16T07:58:01;4.15;;;1.60;;
46863;SDS011;32598;50.204;6.408;2022-10-16T08:00:26;4.10;;;1.42;;
46863;SDS011;32598;50.204;6.408;2022-10-16T08:02:52;7.18;;;1.98;;
46863;SDS011;32598;50.204;6.408;2022-10-16T08:05:17;5.40;;;1.90;;
46863;SDS011;32598;50.204;6.408;2022-10-16T08:07:42;4.97;;;1.70;;
46863;SDS011;32598;50.204;6.408;2022-10-16T08:10:11;6.23;;;1.50;;
46863;SDS011;32598;50.204;6.408;2022-10-16T08:12:40;5.13;;;1.47;;
46863;SDS011;32598;50.204;6.408;2022-10-16T08:15:05;3.33;;;1.10;;
46863;SDS011;32598;50.204;6.408;2022-10-16T08:17:31;5.07;;;1.20;;
46863;SDS011;32598;50.204;6.408;2022-10-16T08:19:56;3.83;;;1.00;;
46863;SDS011;32598;50.204;6.408;2022-10-16T08:22:21;7.47;;;1.30;;
46863;SDS011;32598;50.204;6.408;2022-10-16T08:24:46;7.10;;;1.50;;
46863;SDS011;32598;50.204;6.408;2022-10-16T08:27:11;5.67;;;1.40;;
46863;SDS011;32598;50.204;6.408;2022-10-16T08:29:37;3.80;;;1.20;;
46863;SDS011;32598;50.204;6.408;2022-10-16T08:32:03;3.45;;;1.38;;
46863;SDS011;32598;50.204;6.408;2022-10-16T08:34:28;3.33;;;1.30;;
46863;SDS011;32598;50.204;6.408;2022-10-16T08:36:54;4.07;;;1.42;;
46863;SDS011;32598;50.204;6.408;2022-10-16T08:39:19;3.33;;;1.08;;
46863;SDS011;32598;50.204;6.408;2022-10-16T08:49:10;3.42;;;1.25;;
46863;SDS011;32598;50.204;6.408;2022-10-16T08:51:37;5.47;;;1.27;;
46863;SDS011;32598;50.204;6.408;2022-10-16T08:54:03;2.83;;;1.10;;
46863;SDS011;32598;50.204;6.408;2022-10-16T08:56:29;6.07;;;1.40;;
46863;SDS011;32598;50.204;6.408;2022-10-16T08:58:54;5.15;;;1.38;;
46863;SDS011;32598;50.204;6.408;2022-10-16T09:01:21;6.13;;;1.50;;
46863;SDS011;32598;50.204;6.408;2022-10-16T09:03:58;3.45;;;1.00;;
46863;SDS011;32598;50.204;6.408;2022-10-16T09:17:20;4.47;;;0.80;;
46863;SDS011;32598;50.204;6.408;2022-10-16T09:20:12;2.60;;;0.80;;
46863;SDS011;32598;50.204;6.408;2022-10-16T09:22:32;3.40;;;1.10;;
46863;SDS011;32598;50.204;6.408;2022-10-16T09:24:59;2.58;;;0.90;;
46863;SDS011;32598;50.204;6.408;2022-10-16T09:27:25;3.33;;;0.90;;
46863;SDS011;32598;50.204;6.408;2022-10-16T09:29:51;3.08;;;0.73;;
46863;SDS011;32598;50.204;6.408;2022-10-16T09:32:17;4.70;;;1.30;;
46863;SDS011;32598;50.204;6.408;2022-10-16T09:34:52;4.40;;;1.10;;
46863;SDS011;32598;50.204;6.408;2022-10-16T09:37:19;2.17;;;0.63;;
46863;SDS011;32598;50.204;6.408;2022-10-16T09:39:50;7.38;;;0.80;;
46863;SDS011;32598;50.204;6.408;2022-10-16T09:42:19;3.60;;;0.90;;
46863;SDS011;32598;50.204;6.408;2022-10-16T09:44:48;1.50;;;0.63;;
46863;SDS011;32598;50.204;6.408;2022-10-16T09:47:15;3.08;;;0.80;;
46863;SDS011;32598;50.204;6.408;2022-10-16T09:49:58;2.25;;;0.88;;
46863;SDS011;32598;50.204;6.408;2022-10-16T09:52:26;3.15;;;0.70;;
46863;SDS011;32598;50.204;6.408;2022-10-16T09:54:55;2.97;;;0.90;;
46863;SDS011;32598;50.204;6.408;2022-10-16T09:57:21;2.15;;;0.60;;
46863;SDS011;32598;50.204;6.408;2022-10-16T09:59:47;4.75;;;0.60;;
46863;SDS011;32598;50.204;6.408;2022-10-16T10:02:13;3.20;;;0.47;;
46863;SDS011;32598;50.204;6.408;2022-10-16T10:04:52;3.42;;;1.08;;
46863;SDS011;32598;50.204;6.408;2022-10-16T10:07:31;5.32;;;0.80;;
46863;SDS011;32598;50.204;6.408;2022-10-16T10:09:58;3.47;;;0.70;;
46863;SDS011;32598;50.204;6.408;2022-10-16T10:12:25;2.10;;;0.60;;
46863;SDS011;32598;50.204;6.408;2022-10-16T10:14:51;3.50;;;0.80;;
46863;SDS011;32598;50.204;6.408;2022-10-16T10:17:18;2.50;;;0.80;;
46863;SDS011;32598;50.204;6.408;2022-10-16T10:22:16;4.28;;;0.88;;
46863;SDS011;32598;50.204;6.408;2022-10-16T10:24:42;1.17;;;0.50;;
46863;SDS011;32598;50.204;6.408;2022-10-16T10:27:10;2.63;;;0.60;;
46863;SDS011;32598;50.204;6.408;2022-10-16T10:37:14;2.72;;;0.70;;
46863;SDS011;32598;50.204;6.408;2022-10-16T10:39:44;2.15;;;0.55;;
46863;SDS011;32598;50.204;6.408;2022-10-16T10:42:24;5.13;;;0.80;;
46863;SDS011;32598;50.204;6.408;2022-10-16T11:00:42;3.25;;;0.70;;
46863;SDS011;32598;50.204;6.408;2022-10-16T11:05:46;2.15;;;0.68;;
46863;SDS011;32598;50.204;6.408;2022-10-16T11:10:50;4.60;;;0.70;;
46863;SDS011;32598;50.204;6.408;2022-10-16T11:15:42;2.30;;;0.70;;
46863;SDS011;32598;50.204;6.408;2022-10-16T11:21:02;5.22;;;0.90;;
46863;SDS011;32598;50.204;6.408;2022-10-16T11:23:28;3.35;;;0.82;;
46863;SDS011;32598;50.204;6.408;2022-10-16T11:25:54;2.65;;;0.70;;
46863;SDS011;32598;50.204;6.408;2022-10-16T11:28:23;3.67;;;0.65;;
46863;SDS011;32598;50.204;6.408;2022-10-16T11:30:57;5.45;;;0.80;;
46863;SDS011;32598;50.204;6.408;2022-10-16T11:33:27;4.50;;;0.93;;
46863;SDS011;32598;50.204;6.408;2022-10-16T11:36:09;3.45;;;0.70;;
46863;SDS011;32598;50.204;6.408;2022-10-16T11:38:43;4.43;;;0.75;;
46863;SDS011;32598;50.204;6.408;2022-10-16T11:43:43;4.15;;;0.90;;
46863;SDS011;32598;50.204;6.408;2022-10-16T11:46:12;3.25;;;0.70;;
46863;SDS011;32598;50.204;6.408;2022-10-16T11:48:43;4.18;;;0.90;;
46863;SDS011;32598;50.204;6.408;2022-10-16T11:53:53;2.00;;;0.80;;
46863;SDS011;32598;50.204;6.408;2022-10-16T11:56:21;4.63;;;0.80;;
46863;SDS011;32598;50.204;6.408;2022-10-16T12:01:16;1.63;;;0.73;;
46863;SDS011;32598;50.204;6.408;2022-10-16T12:03:45;2.47;;;0.70;;
46863;SDS011;32598;50.204;6.408;2022-10-16T12:09:00;5.28;;;1.08;;
46863;SDS011;32598;50.204;6.408;2022-10-16T12:14:04;2.33;;;0.65;;
46863;SDS011;32598;50.204;6.408;2022-10-16T12:16:29;4.32;;;0.73;;
46863;SDS011;32598;50.204;6.408;2022-10-16T12:19:11;5.63;;;0.90;;
46863;SDS011;32598;50.204;6.408;2022-10-16T12:21:37;4.35;;;0.80;;
46863;SDS011;32598;50.204;6.408;2022-10-16T12:24:03;2.80;;;0.63;;
46863;SDS011;32598;50.204;6.408;2022-10-16T12:26:32;2.47;;;0.47;;
46863;SDS011;32598;50.204;6.408;2022-10-16T12:29:11;2.92;;;0.90;;
46863;SDS011;32598;50.204;6.408;2022-10-16T12:31:38;5.22;;;0.80;;
46863;SDS011;32598;50.204;6.408;2022-10-16T12:34:14;2.10;;;0.65;;
46863;SDS011;32598;50.204;6.408;2022-10-16T12:36:46;4.60;;;1.42;;
46863;SDS011;32598;50.204;6.408;2022-10-16T12:39:16;3.65;;;0.60;;
46863;SDS011;32598;50.204;6.408;2022-10-16T12:41:45;1.27;;;0.40;;
46863;SDS011;32598;50.204;6.408;2022-10-16T12:44:21;2.57;;;0.63;;
46863;SDS011;32598;50.204;6.408;2022-10-16T12:46:47;1.45;;;0.73;;
46863;SDS011;32598;50.204;6.408;2022-10-16T12:51:38;1.93;;;0.57;;
46863;SDS011;32598;50.204;6.408;2022-10-16T12:54:09;2.55;;;0.70;;
46863;SDS011;32598;50.204;6.408;2022-10-16T12:56:47;2.58;;;0.60;;
46863;SDS011;32598;50.204;6.408;2022-10-16T13:01:55;3.83;;;0.80;;
46863;SDS011;32598;50.204;6.408;2022-10-16T13:04:32;2.47;;;0.82;;
46863;SDS011;32598;50.204;6.408;2022-10-16T13:07:20;2.13;;;0.65;;
46863;SDS011;32598;50.204;6.408;2022-10-16T13:09:52;3.75;;;0.73;;
46863;SDS011;32598;50.204;6.408;2022-10-16T13:15:13;5.78;;;0.70;;
46863;SDS011;32598;50.204;6.408;2022-10-16T13:28:00;2.25;;;0.75;;
46863;SDS011;32598;50.204;6.408;2022-10-16T13:30:45;4.47;;;0.90;;
46863;SDS011;32598;50.204;6.408;2022-10-16T13:35:49;3.28;;;1.00;;
46863;SDS011;32598;50.204;6.408;2022-10-16T13:38:19;3.63;;;1.00;;
46863;SDS011;32598;50.204;6.408;2022-10-16T13:41:04;5.38;;;1.05;;
46863;SDS011;32598;50.204;6.408;2022-10-16T13:43:39;3.13;;;1.10;;
46863;SDS011;32598;50.204;6.408;2022-10-16T13:46:13;3.85;;;1.13;;
46863;SDS011;32598;50.204;6.408;2022-10-16T13:48:40;2.78;;;1.20;;
46863;SDS011;32598;50.204;6.408;2022-10-16T13:51:12;4.82;;;1.30;;
46863;SDS011;32598;50.204;6.408;2022-10-16T13:53:38;3.83;;;1.08;;
46863;SDS011;32598;50.204;6.408;2022-10-16T13:56:04;4.03;;;1.50;;
46863;SDS011;32598;50.204;6.408;2022-10-16T13:58:29;3.55;;;1.10;;
46863;SDS011;32598;50.204;6.408;2022-10-16T14:00:56;2.40;;;0.93;;
46863;SDS011;32598;50.204;6.408;2022-10-16T14:03:22;4.07;;;1.10;;
46863;SDS011;32598;50.204;6.408;2022-10-16T14:05:55;3.53;;;1.00;;
46863;SDS011;32598;50.204;6.408;2022-10-16T14:08:22;2.97;;;1.15;;
46863;SDS011;32598;50.204;6.408;2022-10-16T14:10:51;4.28;;;0.95;;
46863;SDS011;32598;50.204;6.408;2022-10-16T14:13:19;2.55;;;1.05;;
46863;SDS011;32598;50.204;6.408;2022-10-16T14:15:46;3.00;;;1.08;;
46863;SDS011;32598;50.204;6.408;2022-10-16T14:18:22;3.83;;;1.65;;
46863;SDS011;32598;50.204;6.408;2022-10-16T14:20:48;3.60;;;1.38;;
46863;SDS011;32598;50.204;6.408;2022-10-16T14:25:45;8.95;;;1.17;;
46863;SDS011;32598;50.204;6.408;2022-10-16T14:33:33;4.40;;;1.30;;
46863;SDS011;32598;50.204;6.408;2022-10-16T14:38:24;6.05;;;1.70;;
46863;SDS011;32598;50.204;6.408;2022-10-16T14:40:49;4.30;;;1.27;;
46863;SDS011;32598;50.204;6.408;2022-10-16T14:43:18;3.65;;;1.45;;
46863;SDS011;32598;50.204;6.408;2022-10-16T14:45:49;5.05;;;1.92;;
46863;SDS011;32598;50.204;6.408;2022-10-16T14:48:16;3.53;;;1.70;;
46863;SDS011;32598;50.204;6.408;2022-10-16T14:50:42;4.65;;;2.13;;
46863;SDS011;32598;50.204;6.408;2022-10-16T14:53:10;4.55;;;2.10;;
46863;SDS011;32598;50.204;6.408;2022-10-16T14:55:36;5.45;;;2.20;;
46863;SDS011;32598;50.204;6.408;2022-10-16T14:58:01;6.07;;;2.70;;
46863;SDS011;32598;50.204;6.408;2022-10-16T15:00:26;4.50;;;2.13;;
46863;SDS011;32598;50.204;6.408;2022-10-16T15:02:52;4.82;;;2.22;;
46863;SDS011;32598;50.204;6.408;2022-10-16T15:05:18;6.10;;;2.60;;
46863;SDS011;32598;50.204;6.408;2022-10-16T15:07:44;4.70;;;2.50;;
46863;SDS011;32598;50.204;6.408;2022-10-16T15:10:09;7.20;;;3.05;;
46863;SDS011;32598;50.204;6.408;2022-10-16T15:12:35;4.97;;;2.65;;
46863;SDS011;32598;50.204;6.408;2022-10-16T15:15:00;5.72;;;2.78;;
46863;SDS011;32598;50.204;6.408;2022-10-16T15:17:26;6.00;;;3.00;;
46863;SDS011;32598;50.204;6.408;2022-10-16T15:19:51;7.10;;;2.90;;
46863;SDS011;32598;50.204;6.408;2022-10-16T15:22:16;5.78;;;3.17;;
46863;SDS011;32598;50.204;6.408;2022-10-16T15:24:42;6.10;;;2.88;;
46863;SDS011;32598;50.204;6.408;2022-10-16T15:27:07;5.70;;;2.97;;
46863;SDS011;32598;50.204;6.408;2022-10-16T15:29:32;9.80;;;2.90;;
46863;SDS011;32598;50.204;6.408;2022-10-16T15:31:57;7.43;;;3.70;;
46863;SDS011;32598;50.204;6.408;2022-10-16T15:34:23;8.10;;;3.30;;
46863;SDS011;32598;50.204;6.408;2022-10-16T15:36:48;5.35;;;3.17;;
46863;SDS011;32598;50.204;6.408;2022-10-16T15:39:14;7.60;;;3.65;;
46863;SDS011;32598;50.204;6.408;2022-10-16T15:41:40;8.20;;;3.60;;
46863;SDS011;32598;50.204;6.408;2022-10-16T15:44:06;7.30;;;3.47;;
46863;SDS011;32598;50.204;6.408;2022-10-16T15:46:31;5.50;;;3.42;;
46863;SDS011;32598;50.204;6.408;2022-10-16T15:48:58;7.50;;;3.95;;
46863;SDS011;32598;50.204;6.408;2022-10-16T15:51:24;5.57;;;3.38;;
46863;SDS011;32598;50.204;6.408;2022-10-16T15:53:49;6.72;;;3.67;;
46863;SDS011;32598;50.204;6.408;2022-10-16T15:56:15;6.00;;;3.22;;
46863;SDS011;32598;50.204;6.408;2022-10-16T15:58:41;9.30;;;3.90;;
46863;SDS011;32598;50.204;6.408;2022-10-16T16:01:06;7.43;;;3.43;;
46863;SDS011;32598;50.204;6.408;2022-10-16T16:03:32;7.97;;;3.58;;
46863;SDS011;32598;50.204;6.408;2022-10-16T16:05:58;5.93;;;3.80;;
46863;SDS011;32598;50.204;6.408;2022-10-16T16:08:23;6.88;;;4.07;;
46863;SDS011;32598;50.204;6.408;2022-10-16T16:10:58;6.22;;;3.50;;
46863;SDS011;32598;50.204;6.408;2022-10-16T16:13:23;8.23;;;3.85;;
46863;SDS011;32598;50.204;6.408;2022-10-16T16:15:49;6.73;;;4.30;;
46863;SDS011;32598;50.204;6.408;2022-10-16T16:18:14;7.50;;;3.83;;
46863;SDS011;32598;50.204;6.408;2022-10-16T16:20:39;8.80;;;4.60;;
46863;SDS011;32598;50.204;6.408;2022-10-16T16:23:04;5.83;;;3.70;;
46863;SDS011;32598;50.204;6.408;2022-10-16T16:25:29;8.30;;;4.10;;
46863;SDS011;32598;50.204;6.408;2022-10-16T16:27:54;8.52;;;4.57;;
46863;SDS011;32598;50.204;6.408;2022-10-16T16:30:20;10.10;;;6.33;;
46863;SDS011;32598;50.204;6.408;2022-10-16T16:32:45;11.75;;;6.35;;
46863;SDS011;32598;50.204;6.408;2022-10-16T16:35:10;9.88;;;6.13;;
46863;SDS011;32598;50.204;6.408;2022-10-16T16:37:36;10.70;;;5.57;;